Accueil
METAR-TAF:

METAR-TAF

Aéroports :

Cologne, Allemagne

Aéroport Konrad-Adenauer de Cologne/Bonn

latitude: 50-52N, longitude: 007-10E, altitude: 91 m

Observation

Le bulletin a été fait il y a 18 minutes, à 00:20 UTC
Vent 4 kt de est/nord-est
Température -3°C
Humidité 86%
Pression 1023 hPa
Visibilité 10 km ou plus
pas de nuages en-dessous de 1500 mètres et pas de cumulonimbus.

METAR: EDDK 220020Z 06004KT CAVOK M03/M05 Q1023 NOSIG

Heure: 01:38 (00:38 UTC)

Prévision

Le bulletin a été fait il y a 1 heure et 38 minutes, à 23:00 UTC
Prévision valable du 22 à 00 UTC au 23 à 06 UTC
Vent 4 kt de nord-est
Visibilité 10 km ou plus
pas de nuages en-dessous de 1500 mètres et pas de cumulonimbus.
Evoluant progressivement
du 22 à 08 UTC au 22 à 11 UTC
Vent 10 kt de est/nord-est
Evoluant progressivement
du 22 à 17 UTC au 22 à 20 UTC
Vent 5 kt de est/nord-est

TAF: EDDK 212300Z 2200/2306 05004KT CAVOK BECMG 2208/2211 07010KT BECMG 2217/2220 06005KT

Observations et prévisions météorologiques de plus de 4000 aéroports (messages METAR et TAF).

Les stations disponibles sont représentées par des disques jaunes et rouges sur la carte.

Passer la souris dessus pour voir le nom de la station.

Cliquer dessus pour voir les observations et prévisions météorologiques.

Pour changer de carte: cliquez sur les boutons verts avec une croix noire pour zoomer, sur le bouton vert avec un tiret pour effectuer un zoom arrière, ou sur les flèches vertes pour les cartes adjacentes.


METAR-TAF: